All Spectrum Aviation - Van Nuys Airport - KVNY

HOME

Condor Squadron KVNY Webcam

Visit our Electronics Store

Condor Squadron Webcam - Van Nuys Airport - KVNY
Picture taken: Wed, 05 Aug 2020 08:36:36 -0700
YouTube Channel!    Latest Timelapse Movie    Full Size Image    Regular Size Image    

2020/08/05 14:51 KVNY 051451Z AUTO 17005KT 7SM OVC011 19/16 A2995 RMK AO2 SLP132 T01940156 51006

HOME

Condor Squadron KVNY Webcam

Visit our Electronics Store